Impacts METAR Board INFO
IDs:

KFLL - Ft Lauderdale-Hollyw, FL, US

Updated at: 1545 UTC 23 Jan 2018
Potential Impact None Slight Moderate High
Time23/03Z 23/04Z 23/05Z 23/06Z 23/07Z 23/08Z 23/09Z 23/10Z 23/11Z 23/12Z 23/13Z 23/14Z 23/15Z
VIS10 10 10 10 10 10 10 10 10 10 10 10 10
CIG120 36 -- 110 120 -- -- 150 150 37 150 95 95
CoverBKNBKNFEWBKNBKNSCTSCTBKNBKNBKNOVCOVCOVC
FltCatVFRVFRVFRVFRVFRVFRVFRVFRVFRVFRVFRVFRVFR
WX--------------------------
WDir100110120120130140140140140150150140160
WSpd10 10 10 10 11 10 9 9 8 7 8 12 10
WGst-- -- -- -- -- -- -- -- -- -- -- -- --
Raw hourly METARs
KFLL 230253Z 10010KT 10SM SCT030 BKN120 23/21 A3008 RMK AO2 SLP186 T02330211 51009
KFLL 230353Z 11010KT 10SM SCT020 BKN036 BKN120 23/22 A3007 RMK AO2 SLP183 T02330217
KFLL 230453Z 12010KT 10SM FEW090 23/22 A3006 RMK AO2 SLP178 T02330217 402500217
KFLL 230553Z 12010KT 10SM FEW030 BKN110 23/22 A3005 RMK AO2 SLP173 T02330217 10233 20233 58013
KFLL 230653Z 13011KT 10SM FEW020 BKN120 23/22 A3002 RMK AO2 SLP167 T02280222
KFLL 230753Z 14010KT 10SM FEW027 SCT085 23/22 A3002 RMK AO2 SLP164 T02280222
KFLL 230853Z 14009KT 10SM SCT018 SCT080 23/22 A3002 RMK AO2 SLP166 T02280222 55007
KFLL 230953Z 14009KT 10SM FEW014 SCT025 BKN150 23/23 A3002 RMK AO2 SLP164 T02280228
KFLL 231053Z 14008KT 10SM FEW020 SCT035 BKN150 23/23 A3004 RMK AO2 SLP170 T02330228
KFLL 231153Z 15007KT 10SM SCT014 SCT022 BKN037 23/23 A3005 RMK AO2 SLP175 T02330228 10233 20228 53009
KFLL 231253Z 15008KT 10SM FEW020 OVC150 23/23 A3006 RMK AO2 SLP179 T02330228
KFLL 231353Z 14012KT 10SM FEW015 BKN095 OVC150 24/23 A3007 RMK AO2 SLP181 T02390228
KFLL 231453Z 16010KT 10SM SCT013 BKN095 OVC250 25/23 A3007 RMK AO2 SLP183 T02500233 51007